createdAt,value
2024-05-09T00:00:52.512Z,11.90
2024-05-09T00:03:26.040Z,12.20
2024-05-09T00:05:56.260Z,10.82
2024-05-09T00:08:26.929Z,13.43
2024-05-09T00:10:57.203Z,14.73
2024-05-09T00:13:27.438Z,12.48
2024-05-09T00:15:57.526Z,13.75
2024-05-09T00:18:29.669Z,12.75
2024-05-09T00:21:05.870Z,12.82
2024-05-09T00:23:36.103Z,14.10
2024-05-09T00:26:06.308Z,15.10
2024-05-09T00:28:36.424Z,13.05
2024-05-09T00:31:06.582Z,13.20
2024-05-09T00:33:36.821Z,13.38
2024-05-09T00:36:07.444Z,12.20
2024-05-09T00:38:38.064Z,12.85
2024-05-09T00:41:08.271Z,12.38
2024-05-09T00:43:38.429Z,11.75
2024-05-09T00:46:12.195Z,11.25
2024-05-09T00:48:42.875Z,11.20
2024-05-09T00:51:14.370Z,11.57
2024-05-09T00:53:44.943Z,11.00
2024-05-09T00:56:16.024Z,11.18
2024-05-09T00:58:47.105Z,11.05
2024-05-09T01:01:23.978Z,11.27
2024-05-09T01:03:56.629Z,10.43
2024-05-09T01:06:26.772Z,10.85
2024-05-09T01:08:57.201Z,10.48
2024-05-09T01:11:35.726Z,9.70
2024-05-09T01:14:05.893Z,9.73
2024-05-09T01:16:38.772Z,10.30
2024-05-09T01:19:20.808Z,11.55
2024-05-09T01:21:51.079Z,12.82
2024-05-09T01:24:22.065Z,12.05
2024-05-09T01:26:53.819Z,12.15
2024-05-09T01:29:24.285Z,11.55
2024-05-09T01:31:55.165Z,11.50
2024-05-09T01:34:26.062Z,10.60
2024-05-09T01:36:56.168Z,11.65
2024-05-09T01:39:26.462Z,11.82
2024-05-09T01:41:57.001Z,12.27
2024-05-09T01:44:28.014Z,11.27
2024-05-09T01:46:58.111Z,12.40
2024-05-09T01:49:29.080Z,10.65
2024-05-09T01:51:59.947Z,10.97
2024-05-09T01:54:30.078Z,10.97
2024-05-09T01:57:00.143Z,12.43
2024-05-09T01:59:31.125Z,12.13
2024-05-09T02:02:07.717Z,11.83
2024-05-09T02:04:41.194Z,10.48
2024-05-09T02:07:11.364Z,10.65
2024-05-09T02:09:41.448Z,10.10
2024-05-09T02:12:12.680Z,9.18
2024-05-09T02:14:43.031Z,10.52
2024-05-09T02:17:13.207Z,10.25
2024-05-09T02:19:49.596Z,9.32
2024-05-09T02:22:22.699Z,8.55
2024-05-09T02:24:52.874Z,10.32
2024-05-09T02:27:22.909Z,10.43
2024-05-09T02:29:52.985Z,10.38
2024-05-09T02:32:23.121Z,9.20
2024-05-09T02:34:53.240Z,9.02
2024-05-09T02:37:20.600Z,9.35
2024-05-09T02:39:50.661Z,8.80
2024-05-09T02:42:18.043Z,8.27
2024-05-09T02:44:48.169Z,8.73
2024-05-09T02:47:15.713Z,9.52
2024-05-09T02:49:48.855Z,8.23
2024-05-09T02:52:19.423Z,8.75
2024-05-09T02:54:49.527Z,8.48
2024-05-09T02:57:16.990Z,8.57
2024-05-09T02:59:47.240Z,9.23
2024-05-09T03:02:14.748Z,9.02
2024-05-09T03:04:46.223Z,7.45
2024-05-09T03:07:14.290Z,7.95
2024-05-09T03:09:49.794Z,9.15
2024-05-09T03:12:17.156Z,8.30
2024-05-09T03:14:47.993Z,8.35
2024-05-09T03:17:15.591Z,8.27
2024-05-09T03:19:49.944Z,6.63
2024-05-09T03:22:18.387Z,6.65
2024-05-09T03:24:48.429Z,5.53
2024-05-09T03:27:15.832Z,5.50
2024-05-09T03:29:45.853Z,5.50
2024-05-09T03:32:13.446Z,5.10
2024-05-09T03:34:43.729Z,5.80
2024-05-09T03:37:16.910Z,5.47
2024-05-09T03:39:50.520Z,5.28
2024-05-09T03:42:23.123Z,5.00
2024-05-09T03:44:53.244Z,5.57
2024-05-09T03:47:26.089Z,5.80
2024-05-09T03:49:54.277Z,4.90
2024-05-09T03:52:24.439Z,4.90
2024-05-09T03:54:51.851Z,4.57
2024-05-09T03:57:21.863Z,5.40
2024-05-09T03:59:49.487Z,4.15
2024-05-09T04:02:19.707Z,4.75
2024-05-09T04:04:47.256Z,4.72
2024-05-09T04:07:17.380Z,4.30
2024-05-09T04:09:44.754Z,4.75
2024-05-09T04:12:14.859Z,4.05
2024-05-09T04:14:43.114Z,4.22
2024-05-09T04:17:13.259Z,4.03
2024-05-09T04:19:40.901Z,5.00
2024-05-09T04:22:11.807Z,4.63
2024-05-09T04:24:39.187Z,4.30
2024-05-09T04:27:09.229Z,3.83
2024-05-09T04:29:37.629Z,4.18
2024-05-09T04:32:08.594Z,4.28
2024-05-09T04:34:36.878Z,4.47
2024-05-09T04:37:10.451Z,4.45
2024-05-09T04:39:37.846Z,4.30
2024-05-09T04:42:09.184Z,4.57
2024-05-09T04:44:36.564Z,4.20
2024-05-09T04:47:06.847Z,4.07
2024-05-09T04:49:35.416Z,4.45
2024-05-09T04:52:05.663Z,4.63
2024-05-09T04:54:36.309Z,3.72
2024-05-09T04:57:07.569Z,4.13
2024-05-09T04:59:36.473Z,4.63
2024-05-09T05:02:06.879Z,3.80
2024-05-09T05:04:34.527Z,4.63
2024-05-09T05:07:07.741Z,4.38
2024-05-09T05:09:37.094Z,3.97
2024-05-09T05:12:29.550Z,3.80
2024-05-09T05:14:57.015Z,4.30
2024-05-09T05:17:27.203Z,3.58
2024-05-09T05:19:54.947Z,4.15
2024-05-09T05:22:28.289Z,3.85
2024-05-09T05:24:55.750Z,3.40
2024-05-09T05:27:25.836Z,3.38
2024-05-09T05:29:53.290Z,3.50
2024-05-09T05:32:23.534Z,3.55
2024-05-09T05:34:51.071Z,4.10
2024-05-09T05:37:21.115Z,3.92
2024-05-09T05:39:48.584Z,3.22
2024-05-09T05:42:18.812Z,4.28
2024-05-09T05:44:46.170Z,3.55
2024-05-09T05:47:16.614Z,3.78
2024-05-09T05:49:44.236Z,3.72
2024-05-09T05:52:14.860Z,3.25
2024-05-09T05:54:42.251Z,3.33
2024-05-09T05:57:13.952Z,2.72
2024-05-09T06:02:13.901Z,2.67
2024-05-09T06:04:41.472Z,2.80
2024-05-09T06:07:11.614Z,2.33
2024-05-09T06:09:39.068Z,2.38
2024-05-09T06:12:09.438Z,2.33
2024-05-09T06:14:37.124Z,2.38
2024-05-09T06:17:07.561Z,2.47
2024-05-09T06:19:35.464Z,2.30
2024-05-09T06:22:05.993Z,2.33
2024-05-09T06:24:33.418Z,2.67
2024-05-09T06:27:04.587Z,2.97
2024-05-09T06:29:32.087Z,2.80
2024-05-09T06:32:02.312Z,1.92
2024-05-09T06:34:30.067Z,3.13
2024-05-09T06:37:00.452Z,2.78
2024-05-09T06:39:27.947Z,2.40
2024-05-09T06:41:58.028Z,3.20
2024-05-09T06:44:25.541Z,2.67
2024-05-09T06:46:59.409Z,3.00
2024-05-09T06:49:30.245Z,2.30
2024-05-09T06:52:00.536Z,3.28
2024-05-09T06:54:27.993Z,2.80
2024-05-09T06:56:58.339Z,2.50
2024-05-09T06:59:25.829Z,3.33
2024-05-09T07:01:56.199Z,2.90
2024-05-09T07:04:23.870Z,2.47
2024-05-09T07:06:54.026Z,3.35
2024-05-09T07:09:21.478Z,2.65
2024-05-09T07:11:51.795Z,3.22
2024-05-09T07:14:19.753Z,2.85
2024-05-09T07:16:50.247Z,2.60
2024-05-09T07:19:18.264Z,2.93
2024-05-09T07:21:48.405Z,2.30
2024-05-09T07:24:15.802Z,2.67
2024-05-09T07:26:45.955Z,3.67
2024-05-09T07:29:13.408Z,3.13
2024-05-09T07:31:43.462Z,3.38
2024-05-09T07:34:12.077Z,2.50
2024-05-09T07:36:42.257Z,2.30
2024-05-09T07:39:10.196Z,3.17
2024-05-09T07:41:40.362Z,2.85
2024-05-09T07:44:07.856Z,2.35
2024-05-09T07:47:47.275Z,2.63
2024-05-09T07:53:22.054Z,3.23
2024-05-09T07:54:46.844Z,2.70
2024-05-09T07:57:17.463Z,3.60
2024-05-09T07:59:45.535Z,2.75
2024-05-09T08:02:15.653Z,2.60
2024-05-09T08:04:43.346Z,2.97
2024-05-09T08:07:13.593Z,2.92
2024-05-09T08:10:18.711Z,2.28
2024-05-09T08:12:54.102Z,1.88
2024-05-09T08:15:21.550Z,2.75
2024-05-09T08:17:51.729Z,2.50
2024-05-09T08:20:26.973Z,1.95
2024-05-09T08:23:01.289Z,1.17
2024-05-09T08:25:29.581Z,1.40
2024-05-09T08:27:59.712Z,1.05
2024-05-09T08:30:33.538Z,1.98
2024-05-09T08:33:08.311Z,1.40
2024-05-09T08:35:36.303Z,1.83
2024-05-09T08:38:07.654Z,1.77
2024-05-09T08:43:13.191Z,1.52
2024-05-09T08:45:43.787Z,1.48
2024-05-09T08:50:45.596Z,1.60
2024-05-09T08:53:17.123Z,1.80
2024-05-09T08:55:46.492Z,1.60
2024-05-09T08:58:21.099Z,1.38
2024-05-09T09:00:49.571Z,1.75
2024-05-09T09:03:28.117Z,1.80
2024-05-09T09:06:11.060Z,1.92
2024-05-09T09:08:42.431Z,2.10
2024-05-09T09:11:10.901Z,1.70
2024-05-09T09:13:41.457Z,2.28
2024-05-09T09:16:09.065Z,1.50
2024-05-09T09:18:39.501Z,1.52
2024-05-09T09:21:10.883Z,1.30
2024-05-09T09:23:42.829Z,1.20
2024-05-09T09:26:15.656Z,1.50
2024-05-09T09:28:45.899Z,1.40
2024-05-09T09:31:16.949Z,1.35
2024-05-09T09:33:47.607Z,1.50
2024-05-09T09:36:15.648Z,1.63
2024-05-09T09:38:46.724Z,1.90
2024-05-09T09:41:18.050Z,1.98
2024-05-09T09:43:48.870Z,1.70
2024-05-09T09:46:17.098Z,1.40
2024-05-09T09:48:47.904Z,1.30
2024-05-09T09:51:16.143Z,1.30
2024-05-09T09:53:47.414Z,1.50
2024-05-09T09:56:18.159Z,0.98
2024-05-09T09:58:49.643Z,1.10
2024-05-09T10:01:17.317Z,1.38
2024-05-09T10:03:48.147Z,1.33
2024-05-09T10:06:16.500Z,1.00
2024-05-09T10:08:49.776Z,1.08
2024-05-09T10:11:22.342Z,1.50
2024-05-09T10:13:55.067Z,1.70
2024-05-09T10:16:23.054Z,1.27
2024-05-09T10:18:53.544Z,1.13
2024-05-09T10:21:21.461Z,2.08
2024-05-09T10:24:02.939Z,1.50
2024-05-09T10:29:03.864Z,1.38
2024-05-09T10:31:31.440Z,1.10
2024-05-09T10:34:03.606Z,1.00
2024-05-09T10:36:31.362Z,1.52
2024-05-09T10:39:02.866Z,1.08
2024-05-09T10:41:30.591Z,1.10
2024-05-09T10:44:01.411Z,1.05
2024-05-09T10:46:29.225Z,1.23
2024-05-09T10:49:05.310Z,1.00
2024-05-09T10:51:35.615Z,1.00
2024-05-09T10:54:05.808Z,1.45
2024-05-09T10:56:33.195Z,1.67
2024-05-09T10:59:06.962Z,2.08
2024-05-09T11:01:34.969Z,1.85
2024-05-09T11:04:05.290Z,1.30
2024-05-09T11:06:35.142Z,1.67
2024-05-09T11:09:06.263Z,1.63
2024-05-09T11:11:33.964Z,1.50
2024-05-09T11:14:14.821Z,1.83
2024-05-09T11:16:42.300Z,2.22
2024-05-09T11:19:18.678Z,2.63
2024-05-09T11:21:51.724Z,1.55
2024-05-09T11:24:21.943Z,1.45
2024-05-09T11:26:49.881Z,1.38
2024-05-09T11:29:20.045Z,1.85
2024-05-09T11:31:48.230Z,1.25
2024-05-09T11:34:18.880Z,1.80
2024-05-09T11:36:46.739Z,2.80
2024-05-09T11:39:17.049Z,2.22
2024-05-09T11:41:44.434Z,2.38
2024-05-09T11:44:14.495Z,2.00
2024-05-09T11:46:43.508Z,2.53
2024-05-09T11:49:13.886Z,1.92
2024-05-09T11:51:41.374Z,1.98
2024-05-09T11:54:11.439Z,2.33
2024-05-09T11:56:38.851Z,2.00
2024-05-09T11:59:08.932Z,1.92
2024-05-09T12:01:36.531Z,2.30
2024-05-09T12:04:07.186Z,2.25
2024-05-09T12:06:35.323Z,2.37
2024-05-09T12:09:05.523Z,2.30
2024-05-09T12:11:33.062Z,2.28
2024-05-09T12:14:03.356Z,2.70
2024-05-09T12:16:30.963Z,2.33
2024-05-09T12:19:01.360Z,2.17
2024-05-09T12:21:28.947Z,2.30
2024-05-09T12:23:59.043Z,2.55
2024-05-09T12:26:27.710Z,2.22
2024-05-09T12:28:57.740Z,1.85
2024-05-09T12:31:25.362Z,2.30
2024-05-09T12:33:55.680Z,2.40
2024-05-09T12:36:23.229Z,1.95
2024-05-09T12:38:53.370Z,2.20
2024-05-09T12:41:20.785Z,2.10
2024-05-09T12:43:51.258Z,2.33
2024-05-09T12:46:20.594Z,2.55
2024-05-09T12:48:50.839Z,3.13
2024-05-09T12:51:18.371Z,3.13
2024-05-09T12:53:48.524Z,2.50
2024-05-09T12:56:16.112Z,2.60
2024-05-09T12:58:46.216Z,2.55
2024-05-09T13:01:16.386Z,2.58
2024-05-09T13:03:44.099Z,2.22
2024-05-09T13:06:14.412Z,2.30
2024-05-09T13:08:41.973Z,1.90
2024-05-09T13:11:12.147Z,2.00
2024-05-09T13:13:39.752Z,2.40
2024-05-09T13:16:09.989Z,2.20
2024-05-09T13:18:37.534Z,1.88
2024-05-09T13:21:08.078Z,2.47
2024-05-09T13:23:37.947Z,2.58
2024-05-09T13:26:08.250Z,2.00
2024-05-09T13:28:35.733Z,2.10
2024-05-09T13:31:05.876Z,2.40
2024-05-09T13:33:33.650Z,2.00
2024-05-09T13:36:03.860Z,2.25
2024-05-09T13:38:31.297Z,2.15
2024-05-09T13:41:01.444Z,2.58
2024-05-09T13:43:28.868Z,1.90
2024-05-09T13:45:59.217Z,1.98
2024-05-09T13:48:26.762Z,2.70
2024-05-09T13:50:56.904Z,2.15
2024-05-09T13:53:25.308Z,2.28
2024-05-09T13:55:55.371Z,2.10
2024-05-09T13:58:23.622Z,1.80
2024-05-09T14:00:54.071Z,1.75
2024-05-09T14:03:21.777Z,1.90
2024-05-09T14:05:52.844Z,1.98
2024-05-09T14:08:22.460Z,2.22
2024-05-09T14:10:54.039Z,2.83
2024-05-09T14:13:21.649Z,2.60
2024-05-09T14:15:52.178Z,3.70
2024-05-09T14:18:19.994Z,2.45
2024-05-09T14:20:50.133Z,2.03
2024-05-09T14:23:18.324Z,2.75
2024-05-09T14:25:52.151Z,1.83
2024-05-09T14:28:22.734Z,2.10
2024-05-09T14:30:53.772Z,2.13
2024-05-09T14:33:26.582Z,1.90
2024-05-09T14:35:57.261Z,2.28
2024-05-09T14:38:25.284Z,2.08
2024-05-09T14:40:55.756Z,1.63
2024-05-09T14:43:23.497Z,1.70
2024-05-09T14:45:53.837Z,1.70
2024-05-09T14:48:21.593Z,1.80
2024-05-09T14:50:51.765Z,1.80
2024-05-09T14:53:19.434Z,2.08
2024-05-09T14:55:49.954Z,2.08
2024-05-09T14:58:17.899Z,2.20
2024-05-09T15:00:51.274Z,1.77
2024-05-09T15:03:21.153Z,2.20
2024-05-09T15:05:52.959Z,2.38
2024-05-09T15:08:20.761Z,2.22
2024-05-09T15:10:52.272Z,1.95
2024-05-09T15:13:21.537Z,2.10
2024-05-09T15:15:51.928Z,1.98
2024-05-09T15:18:19.953Z,2.22
2024-05-09T15:20:50.337Z,2.33
2024-05-09T15:23:17.901Z,2.40
2024-05-09T15:25:48.263Z,2.42
2024-05-09T15:28:16.026Z,1.92
2024-05-09T15:30:47.030Z,1.90
2024-05-09T15:33:15.149Z,2.00
2024-05-09T15:35:46.861Z,2.33
2024-05-09T15:38:15.028Z,2.45
2024-05-09T15:40:45.122Z,1.80
2024-05-09T15:43:12.882Z,2.05
2024-05-09T15:45:43.683Z,2.97
2024-05-09T15:48:11.807Z,2.57
2024-05-09T15:50:42.871Z,2.55
2024-05-09T15:53:12.605Z,2.00
2024-05-09T15:55:43.699Z,1.80
2024-05-09T15:58:12.430Z,2.15
2024-05-09T16:00:44.824Z,2.17
2024-05-09T16:03:14.828Z,2.90
2024-05-09T16:05:48.803Z,2.65
2024-05-09T16:08:16.992Z,2.53
2024-05-09T16:10:48.275Z,2.30
2024-05-09T16:13:17.541Z,2.40
2024-05-09T16:15:48.698Z,2.45
2024-05-09T16:18:16.452Z,1.83
2024-05-09T16:20:49.341Z,2.13
2024-05-09T16:23:17.818Z,2.35
2024-05-09T16:25:48.723Z,2.15
2024-05-09T16:28:16.942Z,1.90
2024-05-09T16:30:47.270Z,1.75
2024-05-09T16:33:15.108Z,1.90
2024-05-09T16:35:45.226Z,2.13
2024-05-09T16:38:13.446Z,2.40
2024-05-09T16:40:43.556Z,2.13
2024-05-09T16:43:13.106Z,2.15
2024-05-09T16:45:45.428Z,2.08
2024-05-09T16:48:14.289Z,2.13
2024-05-09T16:50:44.762Z,2.08
2024-05-09T16:53:13.714Z,2.10
2024-05-09T16:55:44.086Z,2.30
2024-05-09T16:58:12.708Z,2.38
2024-05-09T17:00:44.405Z,2.05
2024-05-09T17:05:48.237Z,2.25
2024-05-09T17:08:18.096Z,1.90
2024-05-09T17:10:51.870Z,2.28
2024-05-09T17:13:22.785Z,2.42
2024-05-09T17:15:53.231Z,2.40
2024-05-09T17:18:23.736Z,2.72
2024-05-09T17:20:52.552Z,3.00
2024-05-09T17:23:23.023Z,2.55
2024-05-09T17:25:50.395Z,2.85
2024-05-09T17:28:21.049Z,2.45
2024-05-09T17:30:48.804Z,2.60
2024-05-09T17:33:19.377Z,2.88
2024-05-09T17:35:50.396Z,2.50
2024-05-09T17:38:23.016Z,2.80
2024-05-09T17:40:52.211Z,2.50
2024-05-09T17:43:22.758Z,2.83
2024-05-09T17:45:50.478Z,2.00
2024-05-09T17:48:21.989Z,2.35
2024-05-09T17:50:51.598Z,1.88
2024-05-09T17:53:21.971Z,1.60
2024-05-09T17:55:49.519Z,2.00
2024-05-09T17:58:19.646Z,1.77
2024-05-09T18:00:47.150Z,2.15
2024-05-09T18:03:17.446Z,1.92
2024-05-09T18:05:45.765Z,2.03
2024-05-09T18:08:16.028Z,1.70
2024-05-09T18:10:43.539Z,2.30
2024-05-09T18:13:14.603Z,2.15
2024-05-09T18:15:42.203Z,1.95
2024-05-09T18:18:12.862Z,2.63
2024-05-09T18:20:44.468Z,2.42
2024-05-09T18:23:18.625Z,3.28
2024-05-09T18:25:47.668Z,2.65
2024-05-09T18:28:18.670Z,2.60
2024-05-09T18:30:46.518Z,2.70
2024-05-09T18:33:16.937Z,2.95
2024-05-09T18:35:45.483Z,2.88
2024-05-09T18:38:16.207Z,2.75
2024-05-09T18:40:46.134Z,3.38
2024-05-09T18:43:20.360Z,3.67
2024-05-09T18:45:51.674Z,3.35
2024-05-09T18:48:22.110Z,3.33
2024-05-09T18:50:50.004Z,3.15
2024-05-09T18:53:20.194Z,3.50
2024-05-09T18:55:47.627Z,3.63
2024-05-09T18:58:18.480Z,3.40
2024-05-09T19:00:49.136Z,3.30
2024-05-09T19:03:20.761Z,2.60
2024-05-09T19:05:48.843Z,2.90
2024-05-09T19:08:19.469Z,2.85
2024-05-09T19:10:47.089Z,3.55
2024-05-09T19:13:17.252Z,3.00
2024-05-09T19:15:45.035Z,2.95
2024-05-09T19:18:17.291Z,2.97
2024-05-09T19:20:44.951Z,2.72
2024-05-09T19:23:15.056Z,3.13
2024-05-09T19:25:42.496Z,3.05
2024-05-09T19:28:12.792Z,3.00
2024-05-09T19:30:42.337Z,3.47
2024-05-09T19:33:14.923Z,3.17
2024-05-09T19:35:43.602Z,3.55
2024-05-09T19:38:14.668Z,3.22
2024-05-09T19:40:42.325Z,3.45
2024-05-09T19:43:12.551Z,3.30
2024-05-09T19:45:40.208Z,3.90
2024-05-09T19:48:11.022Z,3.55
2024-05-09T19:50:43.144Z,3.33
2024-05-09T19:53:15.737Z,3.65
2024-05-09T19:55:43.704Z,3.80
2024-05-09T19:58:14.170Z,3.35
2024-05-09T20:00:43.585Z,4.22
2024-05-09T20:03:16.290Z,3.85
2024-05-09T20:08:16.064Z,3.33
2024-05-09T20:10:43.819Z,3.33
2024-05-09T20:13:14.122Z,3.00
2024-05-09T20:15:41.642Z,3.55
2024-05-09T20:18:11.871Z,3.20
2024-05-09T20:20:42.584Z,3.50
2024-05-09T20:23:15.080Z,3.17
2024-05-09T20:25:42.801Z,4.00
2024-05-09T20:28:13.002Z,4.38
2024-05-09T20:30:40.653Z,3.00
2024-05-09T20:33:12.086Z,3.05
2024-05-09T20:35:39.771Z,3.70
2024-05-09T20:38:09.917Z,3.17
2024-05-09T20:40:39.636Z,3.22
2024-05-09T20:43:13.414Z,2.90
2024-05-09T20:45:41.139Z,3.13
2024-05-09T20:48:12.226Z,2.97
2024-05-09T20:50:42.034Z,2.60
2024-05-09T20:53:15.343Z,3.25
2024-05-09T20:55:45.627Z,3.45
2024-05-09T20:58:16.004Z,2.67
2024-05-09T21:00:45.741Z,3.03
2024-05-09T21:03:33.019Z,3.25
2024-05-09T21:06:05.757Z,3.27
2024-05-09T21:08:35.947Z,3.22
2024-05-09T21:11:03.395Z,2.70
2024-05-09T21:13:33.563Z,2.53
2024-05-09T21:16:01.130Z,3.05
2024-05-09T21:18:31.380Z,2.47
2024-05-09T21:20:59.021Z,2.08
2024-05-09T21:23:29.079Z,2.20
2024-05-09T21:25:56.475Z,2.50
2024-05-09T21:28:26.893Z,2.00
2024-05-09T21:30:54.403Z,2.58
2024-05-09T21:33:24.746Z,2.47
2024-05-09T21:35:52.288Z,2.60
2024-05-09T21:38:22.659Z,1.80
2024-05-09T21:40:53.975Z,2.15
2024-05-09T21:43:21.886Z,1.85
2024-05-09T21:45:52.133Z,2.10
2024-05-09T21:48:22.649Z,2.05
2024-05-09T21:50:52.957Z,2.10
2024-05-09T21:53:20.350Z,2.03
2024-05-09T21:55:50.452Z,2.20
2024-05-09T21:58:17.962Z,2.30
2024-05-09T22:00:48.413Z,2.63
2024-05-09T22:03:16.048Z,2.13
2024-05-09T22:05:46.149Z,2.67
2024-05-09T22:08:13.678Z,2.65
2024-05-09T22:10:43.960Z,1.83
2024-05-09T22:13:11.540Z,1.60
2024-05-09T22:15:42.704Z,2.00
2024-05-09T22:18:11.325Z,2.25
2024-05-09T22:20:45.817Z,1.65
2024-05-09T22:23:15.311Z,2.17
2024-05-09T22:25:45.524Z,2.00
2024-05-09T22:28:18.286Z,1.95
2024-05-09T22:30:48.542Z,1.90
2024-05-09T22:33:16.230Z,2.22
2024-05-09T22:35:47.609Z,1.80
2024-05-09T22:38:15.377Z,2.25
2024-05-09T22:40:48.919Z,1.90
2024-05-09T22:43:23.227Z,1.88
2024-05-09T22:45:56.231Z,1.98
2024-05-09T22:48:25.325Z,2.17
2024-05-09T22:50:56.330Z,1.83
2024-05-09T22:53:25.260Z,2.03
2024-05-09T22:55:55.971Z,2.20
2024-05-09T22:58:24.080Z,1.52
2024-05-09T23:00:54.594Z,1.63
2024-05-09T23:03:22.923Z,1.63
2024-05-09T23:05:53.235Z,1.80
2024-05-09T23:08:20.596Z,2.10
2024-05-09T23:10:50.931Z,2.05
2024-05-09T23:13:18.585Z,1.90
2024-05-09T23:15:48.707Z,1.90
2024-05-09T23:18:16.221Z,1.65
2024-05-09T23:20:46.303Z,2.00
2024-05-09T23:23:14.149Z,1.55
2024-05-09T23:25:44.681Z,1.77
2024-05-09T23:28:12.401Z,1.90
2024-05-09T23:30:42.796Z,1.90
2024-05-09T23:33:13.604Z,1.85
2024-05-09T23:35:45.315Z,1.92
2024-05-09T23:38:13.372Z,1.73
2024-05-09T23:40:43.834Z,1.65
2024-05-09T23:43:12.596Z,1.90
2024-05-09T23:45:43.715Z,1.80
2024-05-09T23:48:11.797Z,2.13
2024-05-09T23:50:42.111Z,2.08
2024-05-09T23:53:10.641Z,1.90
2024-05-09T23:55:41.213Z,1.60
2024-05-09T23:58:08.927Z,1.90
